createdAt,value
2024-03-15T00:01:04.900Z,3.30
2024-03-15T00:03:31.865Z,3.55
2024-03-15T00:05:59.009Z,3.17
2024-03-15T00:08:26.072Z,3.20
2024-03-15T00:10:52.955Z,3.08
2024-03-15T00:13:20.011Z,4.00
2024-03-15T00:15:47.192Z,4.30
2024-03-15T00:18:14.259Z,4.15
2024-03-15T00:20:41.055Z,3.15
2024-03-15T00:23:09.376Z,3.08
2024-03-15T00:25:36.372Z,3.28
2024-03-15T00:28:03.792Z,2.97
2024-03-15T00:30:30.980Z,3.38
2024-03-15T00:32:58.974Z,3.47
2024-03-15T00:35:26.235Z,3.38
2024-03-15T00:37:53.102Z,3.22
2024-03-15T00:40:19.941Z,4.47
2024-03-15T00:42:46.642Z,3.47
2024-03-15T00:45:13.603Z,3.95
2024-03-15T00:47:40.692Z,3.22
2024-03-15T00:50:07.853Z,3.50
2024-03-15T00:52:34.755Z,3.03
2024-03-15T00:55:01.594Z,3.38
2024-03-15T00:57:28.390Z,3.92
2024-03-15T00:59:55.176Z,3.05
2024-03-15T01:02:21.985Z,2.90
2024-03-15T01:04:48.877Z,2.80
2024-03-15T01:07:15.826Z,3.25
2024-03-15T01:09:42.773Z,3.28
2024-03-15T01:12:09.566Z,3.00
2024-03-15T01:14:36.382Z,2.90
2024-03-15T01:17:03.125Z,2.67
2024-03-15T01:19:33.802Z,3.00
2024-03-15T01:22:01.760Z,3.08
2024-03-15T01:24:30.001Z,2.95
2024-03-15T01:26:58.243Z,3.30
2024-03-15T01:29:25.961Z,2.80
2024-03-15T01:31:53.046Z,3.10
2024-03-15T01:34:19.951Z,2.97
2024-03-15T01:36:46.918Z,3.25
2024-03-15T01:39:13.890Z,3.30
2024-03-15T01:41:41.051Z,3.20
2024-03-15T01:44:08.357Z,2.88
2024-03-15T01:46:36.649Z,3.55
2024-03-15T01:49:03.753Z,3.47
2024-03-15T01:51:31.983Z,3.30
2024-03-15T01:54:01.477Z,3.80
2024-03-15T01:56:28.958Z,4.03
2024-03-15T01:58:56.150Z,4.32
2024-03-15T02:01:23.078Z,3.78
2024-03-15T02:03:50.433Z,4.80
2024-03-15T02:06:17.301Z,5.03
2024-03-15T02:08:44.762Z,4.65
2024-03-15T02:11:12.387Z,4.50
2024-03-15T02:13:39.638Z,4.70
2024-03-15T02:16:06.743Z,4.28
2024-03-15T02:18:34.237Z,4.65
2024-03-15T02:21:01.079Z,5.07
2024-03-15T02:23:30.617Z,5.25
2024-03-15T02:25:57.785Z,4.40
2024-03-15T02:28:24.563Z,4.35
2024-03-15T02:30:51.547Z,5.43
2024-03-15T02:33:19.388Z,5.00
2024-03-15T02:35:47.684Z,5.00
2024-03-15T02:38:14.694Z,4.80
2024-03-15T02:40:41.450Z,4.70
2024-03-15T02:43:08.408Z,4.95
2024-03-15T02:45:36.314Z,4.85
2024-03-15T02:48:03.153Z,5.18
2024-03-15T02:50:30.091Z,5.30
2024-03-15T02:52:57.079Z,4.63
2024-03-15T02:55:24.198Z,4.75
2024-03-15T02:57:51.451Z,4.32
2024-03-15T03:00:18.438Z,4.40
2024-03-15T03:02:45.473Z,5.05
2024-03-15T03:05:13.570Z,4.63
2024-03-15T03:07:40.462Z,4.53
2024-03-15T03:10:07.739Z,4.13
2024-03-15T03:12:34.822Z,4.13
2024-03-15T03:15:01.707Z,4.70
2024-03-15T03:17:28.472Z,4.30
2024-03-15T03:19:55.328Z,5.15
2024-03-15T03:22:22.094Z,4.70
2024-03-15T03:24:49.330Z,5.35
2024-03-15T03:27:16.257Z,5.00
2024-03-15T03:29:43.177Z,4.90
2024-03-15T03:32:12.877Z,4.88
2024-03-15T03:34:40.394Z,5.28
2024-03-15T03:37:07.268Z,4.72
2024-03-15T03:39:34.142Z,4.57
2024-03-15T03:42:03.836Z,5.03
2024-03-15T03:44:30.685Z,5.35
2024-03-15T03:46:57.544Z,4.93
2024-03-15T03:49:24.561Z,4.93
2024-03-15T03:51:51.526Z,5.15
2024-03-15T03:54:18.447Z,5.22
2024-03-15T03:56:45.985Z,5.43
2024-03-15T03:59:12.901Z,5.20
2024-03-15T04:01:39.771Z,4.95
2024-03-15T04:04:07.289Z,5.28
2024-03-15T04:06:34.483Z,5.13
2024-03-15T04:09:01.935Z,5.18
2024-03-15T04:11:28.803Z,5.82
2024-03-15T04:13:55.560Z,5.80
2024-03-15T04:16:23.219Z,5.53
2024-03-15T04:18:50.135Z,6.18
2024-03-15T04:21:17.667Z,5.57
2024-03-15T04:23:44.753Z,5.47
2024-03-15T04:26:11.660Z,5.50
2024-03-15T04:28:39.326Z,5.95
2024-03-15T04:31:07.072Z,5.40
2024-03-15T04:33:34.614Z,5.40
2024-03-15T04:36:05.981Z,6.15
2024-03-15T04:38:33.707Z,9.00
2024-03-15T04:41:11.009Z,8.93
2024-03-15T04:43:38.231Z,6.75
2024-03-15T04:46:05.554Z,5.47
2024-03-15T04:48:32.677Z,5.20
2024-03-15T04:50:59.563Z,4.68
2024-03-15T04:53:26.376Z,4.72
2024-03-15T04:55:53.697Z,5.20
2024-03-15T04:58:22.399Z,4.78
2024-03-15T05:00:51.348Z,5.20
2024-03-15T05:03:18.554Z,5.10
2024-03-15T05:05:45.537Z,5.30
2024-03-15T05:08:12.302Z,5.28
2024-03-15T05:10:39.111Z,5.47
2024-03-15T05:13:07.968Z,5.80
2024-03-15T05:15:35.175Z,5.28
2024-03-15T05:18:02.478Z,5.35
2024-03-15T05:20:29.287Z,5.50
2024-03-15T05:22:56.009Z,5.45
2024-03-15T05:25:23.158Z,5.47
2024-03-15T05:27:50.216Z,5.45
2024-03-15T05:30:19.601Z,5.43
2024-03-15T05:32:47.186Z,5.50
2024-03-15T05:35:19.630Z,5.95
2024-03-15T05:37:46.859Z,5.50
2024-03-15T05:40:14.068Z,5.18
2024-03-15T05:42:41.015Z,5.40
2024-03-15T05:45:08.355Z,5.72
2024-03-15T05:47:35.293Z,5.38
2024-03-15T05:50:05.028Z,5.20
2024-03-15T05:52:35.657Z,5.45
2024-03-15T05:55:03.170Z,5.70
2024-03-15T05:57:31.008Z,5.20
2024-03-15T05:59:59.429Z,5.43
2024-03-15T06:02:26.257Z,4.97
2024-03-15T06:04:53.568Z,4.85
2024-03-15T06:07:20.414Z,4.40
2024-03-15T06:09:48.003Z,4.18
2024-03-15T06:12:15.272Z,4.95
2024-03-15T06:14:42.195Z,5.13
2024-03-15T06:17:08.912Z,4.80
2024-03-15T06:19:35.641Z,5.68
2024-03-15T06:22:02.489Z,5.20
2024-03-15T06:24:29.217Z,5.63
2024-03-15T06:26:57.828Z,5.53
2024-03-15T06:29:33.762Z,5.67
2024-03-15T06:32:04.292Z,6.32
2024-03-15T06:34:33.704Z,7.43
2024-03-15T06:37:03.311Z,6.20
2024-03-15T06:39:39.289Z,7.22
2024-03-15T06:42:32.397Z,6.65
2024-03-15T06:45:09.688Z,6.57
2024-03-15T06:47:40.482Z,6.00
2024-03-15T06:50:10.080Z,6.30
2024-03-15T06:52:36.927Z,5.90
2024-03-15T06:55:04.924Z,6.28
2024-03-15T06:57:35.142Z,6.63
2024-03-15T07:00:02.239Z,6.43
2024-03-15T07:02:31.610Z,6.53
2024-03-15T07:04:58.509Z,6.28
2024-03-15T07:07:25.510Z,7.03
2024-03-15T07:09:52.470Z,6.32
2024-03-15T07:12:19.696Z,6.25
2024-03-15T07:14:49.619Z,6.68
2024-03-15T07:17:17.286Z,6.90
2024-03-15T07:19:44.715Z,7.55
2024-03-15T07:22:11.866Z,8.25
2024-03-15T07:24:38.989Z,6.93
2024-03-15T07:27:06.114Z,7.70
2024-03-15T07:29:33.533Z,7.22
2024-03-15T07:32:00.642Z,7.00
2024-03-15T07:34:28.134Z,6.90
2024-03-15T07:36:57.948Z,6.35
2024-03-15T07:39:30.429Z,6.65
2024-03-15T07:42:00.900Z,7.32
2024-03-15T07:44:29.153Z,7.43
2024-03-15T07:46:59.373Z,6.97
2024-03-15T07:49:26.487Z,6.45
2024-03-15T07:51:53.352Z,6.78
2024-03-15T07:54:22.829Z,7.05
2024-03-15T07:56:50.695Z,7.20
2024-03-15T07:59:19.985Z,7.53
2024-03-15T08:01:47.089Z,8.07
2024-03-15T08:04:15.728Z,7.93
2024-03-15T08:06:42.773Z,7.65
2024-03-15T08:09:12.722Z,8.80
2024-03-15T08:11:40.297Z,10.23
2024-03-15T08:14:07.233Z,10.00
2024-03-15T08:16:36.978Z,12.93
2024-03-15T08:19:10.341Z,14.57
2024-03-15T08:21:38.693Z,15.52
2024-03-15T08:24:06.801Z,15.50
2024-03-15T08:26:33.789Z,14.30
2024-03-15T08:29:01.723Z,14.40
2024-03-15T08:31:28.979Z,14.93
2024-03-15T08:33:55.910Z,16.00
2024-03-15T08:36:25.518Z,15.65
2024-03-15T08:38:52.808Z,14.90
2024-03-15T08:41:19.655Z,14.25
2024-03-15T08:43:46.992Z,13.32
2024-03-15T08:46:13.921Z,14.77
2024-03-15T08:48:41.113Z,14.27
2024-03-15T08:51:09.630Z,14.60
2024-03-15T08:53:37.157Z,14.73
2024-03-15T08:56:04.870Z,14.90
2024-03-15T08:58:32.999Z,15.02
2024-03-15T09:01:00.116Z,13.60
2024-03-15T09:03:27.394Z,14.15
2024-03-15T09:05:54.949Z,15.40
2024-03-15T09:08:21.830Z,15.63
2024-03-15T09:10:48.688Z,15.98
2024-03-15T09:13:17.738Z,15.75
2024-03-15T09:15:44.966Z,14.60
2024-03-15T09:18:12.909Z,15.77
2024-03-15T09:20:44.366Z,16.20
2024-03-15T09:23:13.571Z,16.38
2024-03-15T09:25:40.598Z,16.05
2024-03-15T09:28:10.946Z,17.67
2024-03-15T09:30:50.902Z,17.17
2024-03-15T09:33:29.403Z,18.13
2024-03-15T09:35:57.343Z,18.15
2024-03-15T09:38:24.387Z,16.13
2024-03-15T09:40:58.976Z,17.10
2024-03-15T09:43:28.277Z,15.88
2024-03-15T09:45:56.259Z,16.73
2024-03-15T09:48:25.578Z,17.08
2024-03-15T09:50:55.274Z,16.85
2024-03-15T09:53:22.317Z,15.73
2024-03-15T09:55:54.499Z,16.88
2024-03-15T09:58:24.607Z,17.13
2024-03-15T10:00:52.035Z,15.85
2024-03-15T10:03:19.754Z,15.57
2024-03-15T10:05:46.746Z,15.90
2024-03-15T10:08:14.493Z,16.20
2024-03-15T10:10:46.583Z,16.40
2024-03-15T10:13:15.784Z,15.68
2024-03-15T10:15:47.428Z,16.33
2024-03-15T10:18:15.695Z,15.18
2024-03-15T10:20:43.538Z,16.83
2024-03-15T10:23:12.478Z,16.63
2024-03-15T10:25:39.973Z,17.40
2024-03-15T10:28:12.483Z,16.42
2024-03-15T10:30:41.312Z,17.08
2024-03-15T10:33:09.468Z,16.80
2024-03-15T10:35:37.475Z,16.00
2024-03-15T10:38:06.272Z,16.77
2024-03-15T10:40:35.588Z,16.77
2024-03-15T10:43:03.804Z,16.25
2024-03-15T10:45:31.231Z,18.35
2024-03-15T10:47:59.029Z,17.88
2024-03-15T10:50:31.528Z,17.85
2024-03-15T10:52:58.715Z,18.20
2024-03-15T10:55:27.499Z,18.38
2024-03-15T10:57:59.551Z,18.40
2024-03-15T11:00:29.388Z,17.85
2024-03-15T11:02:57.857Z,16.92
2024-03-15T11:05:32.788Z,17.00
2024-03-15T11:08:13.421Z,16.98
2024-03-15T11:10:44.166Z,16.98
2024-03-15T11:13:13.402Z,16.45
2024-03-15T11:15:40.996Z,14.52
2024-03-15T11:18:09.883Z,16.90
2024-03-15T11:20:54.831Z,17.07
2024-03-15T11:23:27.343Z,17.52
2024-03-15T11:25:58.388Z,17.98
2024-03-15T11:28:30.709Z,17.42
2024-03-15T11:31:01.513Z,15.85
2024-03-15T11:33:30.166Z,17.17
2024-03-15T11:35:59.336Z,15.98
2024-03-15T11:38:27.419Z,14.85
2024-03-15T11:40:57.328Z,14.93
2024-03-15T11:45:51.932Z,11.80
2024-03-15T11:48:21.635Z,9.65
2024-03-15T11:50:50.525Z,10.40
2024-03-15T11:53:19.591Z,11.18
2024-03-15T11:55:47.894Z,10.05
2024-03-15T11:58:19.830Z,10.95
2024-03-15T12:00:49.819Z,10.15
2024-03-15T12:03:18.085Z,9.40
2024-03-15T12:05:45.484Z,9.40
2024-03-15T12:08:14.786Z,9.90
2024-03-15T12:10:44.443Z,10.10
2024-03-15T12:13:32.757Z,8.35
2024-03-15T12:16:02.001Z,8.05
2024-03-15T12:18:30.798Z,6.43
2024-03-15T12:20:58.073Z,7.40
2024-03-15T12:23:25.286Z,7.88
2024-03-15T12:25:53.633Z,9.23
2024-03-15T12:28:22.174Z,6.95
2024-03-15T12:30:51.035Z,6.82
2024-03-15T12:33:18.177Z,7.30
2024-03-15T12:35:46.110Z,6.60
2024-03-15T12:38:15.480Z,5.63
2024-03-15T12:40:45.415Z,7.30
2024-03-15T12:45:43.370Z,8.52
2024-03-15T12:48:12.755Z,6.30
2024-03-15T12:50:41.435Z,6.33
2024-03-15T12:53:17.882Z,8.45
2024-03-15T12:55:44.698Z,12.93
2024-03-15T12:58:11.808Z,7.95
2024-03-15T13:00:39.082Z,8.55
2024-03-15T13:03:06.998Z,5.20
2024-03-15T13:05:35.248Z,4.95
2024-03-15T13:08:02.610Z,4.00
2024-03-15T13:10:30.212Z,4.63
2024-03-15T13:12:58.043Z,5.70
2024-03-15T13:15:25.238Z,5.75
2024-03-15T13:17:56.976Z,6.60
2024-03-15T13:20:24.741Z,7.63
2024-03-15T13:22:55.454Z,6.20
2024-03-15T13:25:35.177Z,4.32
2024-03-15T13:28:06.287Z,3.65
2024-03-15T13:30:34.022Z,4.90
2024-03-15T13:33:02.526Z,4.47
2024-03-15T13:35:30.278Z,4.57
2024-03-15T13:37:57.682Z,5.40
2024-03-15T13:40:26.911Z,4.88
2024-03-15T13:42:55.354Z,4.50
2024-03-15T13:45:24.596Z,4.45
2024-03-15T13:47:56.025Z,3.85
2024-03-15T13:50:23.745Z,3.90
2024-03-15T13:52:53.900Z,3.75
2024-03-15T13:55:23.020Z,4.03
2024-03-15T13:57:50.590Z,3.70
2024-03-15T14:00:36.157Z,3.45
2024-03-15T14:03:04.420Z,3.88
2024-03-15T14:05:40.008Z,4.38
2024-03-15T14:08:10.435Z,4.78
2024-03-15T14:10:39.527Z,4.82
2024-03-15T14:13:08.086Z,4.15
2024-03-15T14:15:40.132Z,3.90
2024-03-15T14:18:11.930Z,4.07
2024-03-15T14:20:40.455Z,4.20
2024-03-15T14:23:07.854Z,6.78
2024-03-15T14:25:35.278Z,5.55
2024-03-15T14:28:04.606Z,5.68
2024-03-15T14:30:34.642Z,5.13
2024-03-15T14:33:02.826Z,6.20
2024-03-15T14:35:30.684Z,7.20
2024-03-15T14:37:57.785Z,8.68
2024-03-15T14:40:25.402Z,8.80
2024-03-15T14:42:56.414Z,7.63
2024-03-15T14:45:25.033Z,7.28
2024-03-15T14:47:55.700Z,9.57
2024-03-15T14:50:25.445Z,9.85
2024-03-15T14:55:19.543Z,10.77
2024-03-15T14:57:46.567Z,13.68
2024-03-15T15:00:14.312Z,20.70
2024-03-15T15:02:43.931Z,13.38
2024-03-15T15:05:11.405Z,18.40
2024-03-15T15:07:38.321Z,13.13
2024-03-15T15:10:09.196Z,11.95
2024-03-15T15:12:37.297Z,12.20
2024-03-15T15:15:08.063Z,16.92
2024-03-15T15:17:35.554Z,16.08
2024-03-15T15:20:10.316Z,15.20
2024-03-15T15:22:39.440Z,12.43
2024-03-15T15:25:11.912Z,13.53
2024-03-15T15:27:40.080Z,13.85
2024-03-15T15:30:08.618Z,19.25
2024-03-15T15:32:35.530Z,14.43
2024-03-15T15:35:09.277Z,14.15
2024-03-15T15:37:39.500Z,12.95
2024-03-15T15:40:18.340Z,15.30
2024-03-15T15:42:49.905Z,10.80
2024-03-15T15:45:18.812Z,13.18
2024-03-15T15:47:46.652Z,16.83
2024-03-15T15:50:21.048Z,14.55
2024-03-15T15:52:49.408Z,10.35
2024-03-15T15:55:17.559Z,9.60
2024-03-15T15:57:44.757Z,17.48
2024-03-15T16:00:16.285Z,15.23
2024-03-15T16:02:43.743Z,10.73
2024-03-15T16:05:11.138Z,6.68
2024-03-15T16:07:38.250Z,5.57
2024-03-15T16:10:05.852Z,5.20
2024-03-15T16:12:33.595Z,7.38
2024-03-15T16:15:02.688Z,9.48
2024-03-15T16:17:31.034Z,11.77
2024-03-15T16:19:57.884Z,12.02
2024-03-15T16:22:24.756Z,10.90
2024-03-15T16:24:53.265Z,8.68
2024-03-15T16:27:20.057Z,6.38
2024-03-15T16:29:46.743Z,5.85
2024-03-15T16:32:13.516Z,5.50
2024-03-15T16:34:41.624Z,4.93
2024-03-15T16:37:08.441Z,3.67
2024-03-15T16:39:35.347Z,3.60
2024-03-15T16:42:02.282Z,3.70
2024-03-15T16:44:28.969Z,3.60
2024-03-15T16:46:56.177Z,4.22
2024-03-15T16:49:22.929Z,3.83
2024-03-15T16:51:52.208Z,3.60
2024-03-15T16:54:19.400Z,3.70
2024-03-15T16:56:46.520Z,3.67
2024-03-15T16:59:13.518Z,4.60
2024-03-15T17:01:40.837Z,3.90
2024-03-15T17:04:11.136Z,6.88
2024-03-15T17:06:39.371Z,5.15
2024-03-15T17:09:13.721Z,4.82
2024-03-15T17:11:40.944Z,5.15
2024-03-15T17:14:07.743Z,4.05
2024-03-15T17:16:34.824Z,6.13
2024-03-15T17:19:03.529Z,11.77
2024-03-15T17:21:30.523Z,10.88
2024-03-15T17:23:57.472Z,8.55
2024-03-15T17:26:24.215Z,6.38
2024-03-15T17:28:51.098Z,5.55
2024-03-15T17:31:17.878Z,5.25
2024-03-15T17:33:45.919Z,4.93
2024-03-15T17:36:13.137Z,5.10
2024-03-15T17:38:40.672Z,4.63
2024-03-15T17:41:07.647Z,4.55
2024-03-15T17:43:34.507Z,4.50
2024-03-15T17:46:01.320Z,4.40
2024-03-15T17:48:28.592Z,4.70
2024-03-15T17:50:55.834Z,5.35
2024-03-15T17:53:22.630Z,4.93
2024-03-15T17:55:49.379Z,4.97
2024-03-15T17:58:16.153Z,4.80
2024-03-15T18:00:43.100Z,5.13
2024-03-15T18:03:09.981Z,4.72
2024-03-15T18:05:37.850Z,4.65
2024-03-15T18:08:05.155Z,4.72
2024-03-15T18:10:32.099Z,5.07
2024-03-15T18:12:59.017Z,4.97
2024-03-15T18:15:26.006Z,5.22
2024-03-15T18:17:53.185Z,5.28
2024-03-15T18:20:20.423Z,4.82
2024-03-15T18:22:47.161Z,5.47
2024-03-15T18:25:14.076Z,4.82
2024-03-15T18:27:40.924Z,5.40
2024-03-15T18:30:10.016Z,5.03
2024-03-15T18:32:37.993Z,4.75
2024-03-15T18:35:05.701Z,5.28
2024-03-15T18:37:33.849Z,4.80
2024-03-15T18:40:00.845Z,5.88
2024-03-15T18:42:28.031Z,6.18
2024-03-15T18:44:57.917Z,6.68
2024-03-15T18:49:53.070Z,7.10
2024-03-15T18:52:20.214Z,6.03
2024-03-15T18:54:54.186Z,6.15
2024-03-15T18:57:22.848Z,7.18
2024-03-15T18:59:58.559Z,6.93
2024-03-15T19:02:30.297Z,6.93
2024-03-15T19:04:57.116Z,7.20
2024-03-15T19:07:23.869Z,8.75
2024-03-15T19:09:50.763Z,8.07
2024-03-15T19:12:17.551Z,8.13
2024-03-15T19:14:44.375Z,7.20
2024-03-15T19:17:15.102Z,8.70
2024-03-15T19:19:42.159Z,8.73
2024-03-15T19:22:09.121Z,8.57
2024-03-15T19:24:36.012Z,8.75
2024-03-15T19:27:02.696Z,8.63
2024-03-15T19:29:30.494Z,8.55
2024-03-15T19:31:57.422Z,8.40
2024-03-15T19:34:24.323Z,9.38
2024-03-15T19:36:52.125Z,10.13
2024-03-15T19:39:18.940Z,8.85
2024-03-15T19:41:45.863Z,8.52
2024-03-15T19:44:12.663Z,8.65
2024-03-15T19:46:39.312Z,8.73
2024-03-15T19:49:06.310Z,10.13
2024-03-15T19:51:33.637Z,9.82
2024-03-15T19:54:00.403Z,9.40
2024-03-15T19:56:27.135Z,9.18
2024-03-15T19:58:53.896Z,10.27
2024-03-15T20:01:20.773Z,9.52
2024-03-15T20:03:47.641Z,10.63
2024-03-15T20:06:14.638Z,11.20
2024-03-15T20:08:41.588Z,13.18
2024-03-15T20:11:13.306Z,12.52
2024-03-15T20:13:43.229Z,13.23
2024-03-15T20:16:10.372Z,12.30
2024-03-15T20:18:37.380Z,13.15
2024-03-15T20:21:05.062Z,12.93
2024-03-15T20:23:31.876Z,14.05
2024-03-15T20:25:58.632Z,15.57
2024-03-15T20:28:25.288Z,16.55
2024-03-15T20:30:54.323Z,14.70
2024-03-15T20:33:21.157Z,15.38
2024-03-15T20:35:48.078Z,13.20
2024-03-15T20:38:17.530Z,13.90
2024-03-15T20:40:48.238Z,13.93
2024-03-15T20:43:15.193Z,13.85
2024-03-15T20:45:42.112Z,12.10
2024-03-15T20:48:09.012Z,11.75
2024-03-15T20:50:35.759Z,11.25
2024-03-15T20:53:02.994Z,11.85
2024-03-15T20:55:29.857Z,11.40
2024-03-15T20:57:56.647Z,11.65
2024-03-15T21:00:23.432Z,10.88
2024-03-15T21:02:50.938Z,11.02
2024-03-15T21:05:17.972Z,10.82
2024-03-15T21:07:44.728Z,11.13
2024-03-15T21:10:11.866Z,10.75
2024-03-15T21:12:39.276Z,10.82
2024-03-15T21:15:09.816Z,10.88
2024-03-15T21:17:38.427Z,10.50
2024-03-15T21:20:13.780Z,10.07
2024-03-15T21:22:41.100Z,10.93
2024-03-15T21:25:09.362Z,11.30
2024-03-15T21:27:36.369Z,10.38
2024-03-15T21:30:03.607Z,10.57
2024-03-15T21:32:30.662Z,10.48
2024-03-15T21:34:57.455Z,10.70
2024-03-15T21:37:24.730Z,10.80
2024-03-15T21:39:51.709Z,10.60
2024-03-15T21:42:18.884Z,10.60
2024-03-15T21:44:47.213Z,10.52
2024-03-15T21:47:13.971Z,11.25
2024-03-15T21:49:40.760Z,10.32
2024-03-15T21:52:07.741Z,10.55
2024-03-15T21:54:34.559Z,13.20
2024-03-15T21:57:01.272Z,16.38
2024-03-15T21:59:28.193Z,15.93
2024-03-15T22:02:00.184Z,14.35
2024-03-15T22:04:31.675Z,14.38
2024-03-15T22:06:59.000Z,13.40
2024-03-15T22:09:27.506Z,14.80
2024-03-15T22:11:54.617Z,13.60
2024-03-15T22:14:21.496Z,12.88
2024-03-15T22:16:48.351Z,12.45
2024-03-15T22:19:15.132Z,12.93
2024-03-15T22:21:42.025Z,13.00
2024-03-15T22:24:09.613Z,14.40
2024-03-15T22:26:36.485Z,14.95
2024-03-15T22:29:03.236Z,14.50
2024-03-15T22:31:30.920Z,13.90
2024-03-15T22:33:57.678Z,12.30
2024-03-15T22:36:24.746Z,12.10
2024-03-15T22:38:53.984Z,12.57
2024-03-15T22:41:24.468Z,13.02
2024-03-15T22:43:52.389Z,13.00
2024-03-15T22:46:19.244Z,13.25
2024-03-15T22:48:46.565Z,12.45
2024-03-15T22:51:13.487Z,12.90
2024-03-15T22:53:40.685Z,12.38
2024-03-15T22:56:07.525Z,12.50
2024-03-15T22:58:34.263Z,11.93
2024-03-15T23:01:06.555Z,13.10
2024-03-15T23:03:36.018Z,13.15
2024-03-15T23:06:07.479Z,12.25
2024-03-15T23:08:34.278Z,11.52
2024-03-15T23:11:01.072Z,12.40
2024-03-15T23:13:28.207Z,12.23
2024-03-15T23:15:55.984Z,12.63
2024-03-15T23:18:23.029Z,12.23
2024-03-15T23:20:50.772Z,12.40
2024-03-15T23:23:17.622Z,12.20
2024-03-15T23:25:45.633Z,11.68
2024-03-15T23:28:12.642Z,11.27
2024-03-15T23:30:39.378Z,12.38
2024-03-15T23:33:07.270Z,12.07
2024-03-15T23:35:34.358Z,12.40
2024-03-15T23:38:01.145Z,11.00
2024-03-15T23:40:28.010Z,11.07
2024-03-15T23:42:54.856Z,11.75
2024-03-15T23:45:21.577Z,11.07
2024-03-15T23:47:48.350Z,11.35
2024-03-15T23:50:15.264Z,11.55
2024-03-15T23:52:41.984Z,11.23
2024-03-15T23:55:09.621Z,10.50
2024-03-15T23:57:37.087Z,10.88
